Time;durP1;ratioP1;P1;durP2;ratioP2;P2;SDS_P1;SDS_P2;PMS_P1;PMS_P2;Temp;Humidity;BMP_temperature;BMP_pressure;BME280_temperature;BME280_humidity;BME280_pressure;Samples;Min_cycle;Max_cycle;Signal;HPM_P1;HPM_P2
2023/04/17 00:02:21;;;;;;;23.80;16.63;;;8.30;55.90;;;;;;7393408;19;20522;-69
2023/04/17 00:04:54;;;;;;;28.05;18.25;;;8.30;56.40;;;;;;7372004;19;20011;-68
2023/04/17 00:07:27;;;;;;;28.70;18.63;;;8.30;56.80;;;;;;7372811;19;20082;-68
2023/04/17 00:09:57;;;;;;;27.52;18.20;;;8.30;56.80;;;;;;7371762;19;20017;-68
2023/04/17 00:12:26;;;;;;;27.20;18.08;;;8.30;57.00;;;;;;7371814;19;20021;-68
2023/04/17 00:14:56;;;;;;;33.13;19.33;;;8.30;57.00;;;;;;7371201;19;20010;-68
2023/04/17 00:17:26;;;;;;;28.45;18.73;;;8.30;57.00;;;;;;7394965;19;20019;-68
2023/04/17 00:19:59;;;;;;;31.63;18.95;;;8.30;57.00;;;;;;7370380;19;20018;-68
2023/04/17 00:22:29;;;;;;;29.00;18.55;;;8.30;57.70;;;;;;7371145;19;20015;-68
2023/04/17 00:24:59;;;;;;;30.30;19.77;;;8.30;57.10;;;;;;7370847;19;20010;-67
2023/04/17 00:27:28;;;;;;;30.90;19.15;;;8.30;57.10;;;;;;7366603;19;20085;-68
2023/04/17 00:29:59;;;;;;;29.98;19.27;;;8.30;57.10;;;;;;7391004;19;20011;-67
2023/04/17 00:32:29;;;;;;;27.75;18.83;;;8.20;57.40;;;;;;7394599;19;20018;-68
2023/04/17 00:35:01;;;;;;;30.48;19.48;;;8.20;57.90;;;;;;7371050;19;20014;-69
2023/04/17 00:37:31;;;;;;;28.52;18.52;;;8.20;58.00;;;;;;7371177;19;20010;-68
2023/04/17 00:40:01;;;;;;;27.00;17.90;;;8.20;58.30;;;;;;7371942;19;20010;-69
2023/04/17 00:42:31;;;;;;;27.58;17.90;;;8.20;58.00;;;;;;7371339;19;20017;-68
2023/04/17 00:45:03;;;;;;;26.85;18.92;;;8.20;58.20;;;;;;7392462;19;20021;-69
2023/04/17 00:47:33;;;;;;;27.85;17.95;;;8.20;57.90;;;;;;7372506;19;20031;-68
2023/04/17 00:50:06;;;;;;;26.40;17.83;;;8.20;57.90;;;;;;7368891;19;20471;-68
2023/04/17 00:52:36;;;;;;;26.95;18.02;;;8.20;58.30;;;;;;7366894;19;20356;-68
2023/04/17 00:55:07;;;;;;;27.38;18.48;;;8.20;58.40;;;;;;7371103;19;20037;-68
2023/04/17 00:57:37;;;;;;;27.65;17.10;;;8.20;58.70;;;;;;7371276;19;20006;-68
2023/04/17 01:00:09;;;;;;;27.33;18.40;;;8.20;58.90;;;;;;7369915;19;20486;-68
2023/04/17 01:02:39;;;;;;;27.70;17.65;;;8.20;59.00;;;;;;7391283;19;20015;-68
2023/04/17 01:05:12;;;;;;;32.30;19.05;;;8.10;59.10;;;;;;7369093;19;20034;-68
2023/04/17 01:07:43;;;;;;;28.02;18.63;;;8.10;59.60;;;;;;7370346;19;20010;-68
2023/04/17 01:10:13;;;;;;;24.15;17.50;;;8.10;59.80;;;;;;7371171;19;20003;-69
2023/04/17 01:12:45;;;;;;;28.70;19.55;;;8.10;59.90;;;;;;7368586;19;20016;-68
2023/04/17 01:15:15;;;;;;;28.27;17.80;;;8.10;60.20;;;;;;7391567;19;20595;-68
2023/04/17 01:17:45;;;;;;;26.95;17.67;;;8.10;59.70;;;;;;7371135;19;20014;-69
2023/04/17 01:20:18;;;;;;;29.55;18.83;;;8.10;59.60;;;;;;7367279;19;20035;-69
2023/04/17 01:22:50;;;;;;;28.30;18.17;;;8.10;59.40;;;;;;7370329;19;20010;-69
2023/04/17 01:25:23;;;;;;;24.80;16.98;;;8.10;59.40;;;;;;7370919;19;20487;-68
2023/04/17 01:27:53;;;;;;;26.50;16.75;;;8.10;58.80;;;;;;7368941;19;20007;-68
2023/04/17 01:30:23;;;;;;;28.17;17.92;;;8.10;58.30;;;;;;7369540;19;20018;-69
2023/04/17 01:32:55;;;;;;;25.25;17.30;;;8.10;58.00;;;;;;7391407;19;20470;-68
2023/04/17 01:35:25;;;;;;;28.85;17.65;;;8.10;57.90;;;;;;7367160;19;20041;-68
2023/04/17 01:37:55;;;;;;;26.85;17.38;;;8.10;57.20;;;;;;7369902;19;20519;-68
2023/04/17 01:40:27;;;;;;;25.90;17.60;;;8.10;56.90;;;;;;7367894;19;20010;-69
2023/04/17 01:42:57;;;;;;;27.10;17.60;;;8.10;56.80;;;;;;7367418;19;20018;-68
2023/04/17 01:45:27;;;;;;;25.20;16.08;;;8.10;56.90;;;;;;7368936;19;20019;-69
2023/04/17 01:47:59;;;;;;;24.98;16.50;;;8.10;57.50;;;;;;7391967;19;20497;-68
2023/04/17 01:50:29;;;;;;;27.45;17.70;;;8.10;56.80;;;;;;7366830;19;20010;-68
2023/04/17 01:52:59;;;;;;;23.92;16.75;;;8.10;56.80;;;;;;7367705;19;20014;-69
2023/04/17 01:55:32;;;;;;;25.95;18.08;;;8.10;56.70;;;;;;7367923;19;20021;-68
2023/04/17 01:58:02;;;;;;;24.65;17.15;;;8.10;56.80;;;;;;7369304;19;20431;-67
2023/04/17 02:00:31;;;;;;;28.77;17.77;;;8.10;56.70;;;;;;7367214;19;20415;-69
2023/04/17 02:03:01;;;;;;;26.98;17.10;;;8.10;56.10;;;;;;7386974;19;20358;-68
2023/04/17 02:05:31;;;;;;;25.58;17.27;;;8.10;56.60;;;;;;7367613;19;20010;-68
2023/04/17 02:08:01;;;;;;;27.48;17.80;;;8.20;56.50;;;;;;7368735;19;20021;-69
2023/04/17 02:10:35;;;;;;;27.50;17.88;;;8.10;56.00;;;;;;7368068;19;20083;-68
2023/04/17 02:13:05;;;;;;;28.73;17.70;;;8.20;56.30;;;;;;7367486;19;20071;-69
2023/04/17 02:15:34;;;;;;;25.65;17.40;;;8.10;56.20;;;;;;7366438;19;20276;-68
2023/04/17 02:18:05;;;;;;;27.92;18.20;;;8.10;56.20;;;;;;7391138;19;20019;-68
2023/04/17 02:20:35;;;;;;;27.23;18.48;;;8.10;55.80;;;;;;7366584;19;20083;-69
2023/04/17 02:23:06;;;;;;;30.08;19.35;;;8.10;56.80;;;;;;7366923;19;20078;-69
2023/04/17 02:25:39;;;;;;;27.48;18.15;;;8.10;56.90;;;;;;7366874;19;20015;-68
2023/04/17 02:28:09;;;;;;;31.85;18.10;;;8.10;56.80;;;;;;7366967;19;20352;-69
2023/04/17 02:30:39;;;;;;;27.23;18.77;;;8.00;57.00;;;;;;7336370;19;20025;-68
2023/04/17 02:33:09;;;;;;;29.50;18.88;;;8.00;56.80;;;;;;7367678;19;20035;-68
2023/04/17 02:35:39;;;;;;;27.73;18.38;;;8.00;56.90;;;;;;7389988;19;20014;-68
2023/04/17 02:38:09;;;;;;;27.48;18.60;;;8.00;57.40;;;;;;7368984;19;20070;-69
2023/04/17 02:40:41;;;;;;;27.20;17.10;;;8.00;57.30;;;;;;7366543;19;20011;-68
2023/04/17 02:43:12;;;;;;;33.35;19.48;;;8.00;57.60;;;;;;7366783;19;20010;-67
2023/04/17 02:45:42;;;;;;;29.00;19.33;;;8.00;58.80;;;;;;7337782;19;20089;-68
2023/04/17 02:48:12;;;;;;;29.83;18.52;;;8.00;57.90;;;;;;7369001;19;20021;-69
2023/04/17 02:50:42;;;;;;;34.47;19.85;;;8.00;58.00;;;;;;7389159;19;20015;-68
2023/04/17 02:53:12;;;;;;;29.60;18.52;;;8.00;57.10;;;;;;7367333;19;20030;-68
2023/04/17 02:55:44;;;;;;;32.80;18.88;;;8.00;57.80;;;;;;7367479;19;20015;-68
2023/04/17 02:58:14;;;;;;;30.20;19.35;;;8.00;57.40;;;;;;7368652;19;20321;-68
2023/04/17 03:00:44;;;;;;;27.33;17.33;;;8.00;58.20;;;;;;7366229;19;20023;-68
2023/04/17 03:03:14;;;;;;;28.02;18.63;;;7.90;57.90;;;;;;7388960;19;20691;-68
2023/04/17 03:05:45;;;;;;;30.05;20.42;;;8.00;58.30;;;;;;7367213;19;20015;-69
2023/04/17 03:08:15;;;;;;;28.90;19.52;;;7.90;57.60;;;;;;7368663;19;20479;-68
2023/04/17 03:10:47;;;;;;;31.67;20.08;;;8.00;57.90;;;;;;7364076;19;20404;-68
2023/04/17 03:13:17;;;;;;;28.95;18.98;;;8.00;57.90;;;;;;7366423;19;20078;-69
2023/04/17 03:15:47;;;;;;;30.10;19.23;;;8.00;57.90;;;;;;7372438;19;20015;-69
2023/04/17 03:18:17;;;;;;;30.65;19.60;;;8.00;57.60;;;;;;7397280;19;20010;-68
2023/04/17 03:20:46;;;;;;;33.13;19.83;;;8.00;58.00;;;;;;7370914;19;20011;-68
2023/04/17 03:23:16;;;;;;;30.27;19.42;;;8.00;57.80;;;;;;7373094;19;20017;-68
2023/04/17 03:25:49;;;;;;;30.90;19.23;;;8.00;57.80;;;;;;7375696;19;20014;-69
2023/04/17 03:28:20;;;;;;;31.10;19.90;;;8.00;57.80;;;;;;7373577;19;20002;-68
2023/04/17 03:30:50;;;;;;;29.23;18.75;;;7.90;57.90;;;;;;7371518;19;20011;-68
2023/04/17 03:33:20;;;;;;;27.67;18.92;;;7.90;58.00;;;;;;7391884;19;20350;-68
2023/04/17 03:35:50;;;;;;;32.78;19.98;;;7.90;57.90;;;;;;7373617;19;20011;-68
2023/04/17 03:38:20;;;;;;;31.25;19.10;;;8.00;58.20;;;;;;7374090;19;20074;-68
2023/04/17 03:40:53;;;;;;;28.38;18.85;;;8.00;58.00;;;;;;7370701;19;20389;-68
2023/04/17 03:43:23;;;;;;;28.80;18.75;;;7.90;57.70;;;;;;7370650;19;20371;-68
2023/04/17 03:45:52;;;;;;;26.95;18.85;;;7.90;57.80;;;;;;7374401;19;20017;-68
2023/04/17 03:48:22;;;;;;;30.40;17.85;;;7.90;57.60;;;;;;7395049;19;20025;-68
2023/04/17 03:50:53;;;;;;;26.73;17.42;;;7.90;57.70;;;;;;7371343;19;20019;-69
2023/04/17 03:53:23;;;;;;;29.77;19.92;;;8.00;57.30;;;;;;7370512;19;20383;-67
2023/04/17 03:55:55;;;;;;;27.88;18.70;;;8.00;56.80;;;;;;7372424;19;20024;-67
2023/04/17 03:58:25;;;;;;;28.00;17.38;;;8.00;56.90;;;;;;7373081;19;20086;-68
2023/04/17 04:00:57;;;;;;;26.65;17.75;;;7.90;56.70;;;;;;7371690;19;20085;-68
2023/04/17 04:03:27;;;;;;;28.10;18.65;;;7.90;56.70;;;;;;7391684;19;20467;-68
2023/04/17 04:05:57;;;;;;;29.02;18.33;;;8.00;56.80;;;;;;7374342;19;20388;-68
2023/04/17 04:08:27;;;;;;;31.00;19.08;;;7.90;56.70;;;;;;7371751;19;20014;-68
2023/04/17 04:11:00;;;;;;;27.52;18.02;;;7.90;56.70;;;;;;7371903;19;20015;-68
2023/04/17 04:13:31;;;;;;;28.25;18.35;;;7.90;56.70;;;;;;7370353;19;20112;-68
2023/04/17 04:16:01;;;;;;;29.98;17.98;;;7.90;56.70;;;;;;7366520;19;20014;-69
2023/04/17 04:18:31;;;;;;;26.65;18.33;;;7.90;56.60;;;;;;7394837;19;20043;-67
2023/04/17 04:21:01;;;;;;;27.40;18.10;;;7.90;56.50;;;;;;7369997;19;20016;-68
2023/04/17 04:23:32;;;;;;;26.40;18.27;;;7.90;56.60;;;;;;7370434;19;20038;-68
2023/04/17 04:26:05;;;;;;;30.98;19.30;;;7.90;56.70;;;;;;7371441;19;20435;-67
2023/04/17 04:28:35;;;;;;;30.02;19.35;;;7.90;56.50;;;;;;7372031;19;20014;-68
2023/04/17 04:31:05;;;;;;;30.48;19.58;;;7.90;56.60;;;;;;7370656;19;20010;-67
2023/04/17 04:33:36;;;;;;;28.15;18.98;;;7.90;56.60;;;;;;7391692;19;20014;-68
2023/04/17 04:36:06;;;;;;;30.80;19.30;;;7.90;56.70;;;;;;7367543;19;20015;-68
2023/04/17 04:38:36;;;;;;;28.95;18.13;;;7.90;56.60;;;;;;7371530;19;20017;-69
2023/04/17 04:41:09;;;;;;;28.60;17.95;;;7.90;56.70;;;;;;7370260;19;20466;-68
2023/04/17 04:43:39;;;;;;;29.20;19.25;;;7.90;56.70;;;;;;7370142;19;20018;-68
2023/04/17 04:46:09;;;;;;;29.40;19.23;;;7.90;56.80;;;;;;7372060;19;20120;-69
2023/04/17 04:48:39;;;;;;;32.38;19.42;;;7.90;56.70;;;;;;7393196;19;20011;-68
2023/04/17 04:51:11;;;;;;;32.30;19.23;;;7.90;56.90;;;;;;7369223;19;20013;-68
2023/04/17 04:53:41;;;;;;;28.85;19.40;;;7.90;56.80;;;;;;7369376;19;20015;-71
2023/04/17 04:56:14;;;;;;;30.80;20.95;;;7.90;56.70;;;;;;7370918;19;20002;-70
2023/04/17 04:58:44;;;;;;;34.00;20.70;;;7.90;56.70;;;;;;7371829;19;20011;-69
2023/04/17 05:01:14;;;;;;;28.45;18.42;;;7.90;56.70;;;;;;7371225;19;20003;-68
2023/04/17 05:03:45;;;;;;;33.10;19.23;;;7.90;56.40;;;;;;7369051;19;20043;-69
2023/04/17 05:06:15;;;;;;;31.27;19.20;;;7.90;56.60;;;;;;7393876;19;20010;-69
2023/04/17 05:08:46;;;;;;;30.02;19.35;;;7.90;55.50;;;;;;7371368;19;20018;-68
2023/04/17 05:11:19;;;;;;;28.60;18.33;;;7.90;55.60;;;;;;7369684;19;20021;-68
2023/04/17 05:13:49;;;;;;;28.85;18.85;;;8.00;55.70;;;;;;7369750;19;20474;-69
2023/04/17 05:16:19;;;;;;;31.40;20.55;;;8.00;55.10;;;;;;7372208;19;20043;-68
2023/04/17 05:18:49;;;;;;;31.15;19.60;;;8.00;55.10;;;;;;7370068;19;20029;-69
2023/04/17 05:21:19;;;;;;;29.30;18.85;;;7.90;54.80;;;;;;7391565;19;20015;-68
2023/04/17 05:23:49;;;;;;;29.92;19.75;;;8.00;55.40;;;;;;7368962;19;20917;-68
2023/04/17 05:26:22;;;;;;;28.73;20.15;;;7.90;54.90;;;;;;7370072;19;20013;-68
2023/04/17 05:28:52;;;;;;;31.27;20.02;;;8.00;56.00;;;;;;7370235;19;20322;-69
2023/04/17 05:31:22;;;;;;;30.10;19.83;;;7.90;56.20;;;;;;7367125;19;20022;-68
2023/04/17 05:33:52;;;;;;;28.52;18.00;;;8.00;56.10;;;;;;7367689;19;20010;-69
2023/04/17 05:36:22;;;;;;;28.45;18.90;;;7.90;56.50;;;;;;7389396;19;20541;-69
2023/04/17 05:38:51;;;;;;;28.27;18.10;;;7.90;56.00;;;;;;7369484;19;20011;-68
2023/04/17 05:41:25;;;;;;;28.35;19.00;;;7.90;56.00;;;;;;7367499;19;20306;-71
2023/04/17 05:43:54;;;;;;;29.98;20.15;;;8.00;56.80;;;;;;7368450;19;20007;-69
2023/04/17 05:46:24;;;;;;;31.00;19.67;;;8.10;57.90;;;;;;7367056;19;20396;-68
2023/04/17 05:48:54;;;;;;;28.77;19.58;;;8.00;56.70;;;;;;7390504;19;20014;-68
2023/04/17 05:51:25;;;;;;;31.10;19.00;;;8.00;57.30;;;;;;7366750;19;20021;-69
2023/04/17 05:53:55;;;;;;;31.40;19.63;;;7.90;57.50;;;;;;7365903;19;20011;-69
2023/04/17 05:56:27;;;;;;;33.00;19.58;;;7.90;57.90;;;;;;7368295;19;20010;-69
2023/04/17 05:58:57;;;;;;;30.05;18.98;;;7.90;57.90;;;;;;7367570;19;20498;-69
2023/04/17 06:01:28;;;;;;;31.10;19.50;;;7.90;58.10;;;;;;7365395;19;20011;-68
2023/04/17 06:03:58;;;;;;;33.17;19.67;;;7.90;58.70;;;;;;7389250;19;20474;-68
2023/04/17 06:06:30;;;;;;;30.70;19.65;;;7.90;58.40;;;;;;7366854;19;20009;-68
2023/04/17 06:09:00;;;;;;;35.42;20.20;;;7.90;59.50;;;;;;7367450;19;20029;-69
2023/04/17 06:11:32;;;;;;;29.70;19.80;;;7.90;59.40;;;;;;7367739;19;20583;-67
2023/04/17 06:14:02;;;;;;;33.17;20.65;;;7.90;59.60;;;;;;7316442;19;20026;-69
2023/04/17 06:16:32;;;;;;;31.80;19.92;;;8.00;59.80;;;;;;7367520;19;20038;-69
2023/04/17 06:19:02;;;;;;;32.22;19.15;;;7.90;60.00;;;;;;7389850;19;20361;-69
2023/04/17 06:21:33;;;;;;;33.95;20.40;;;8.00;60.60;;;;;;7365766;19;20474;-68
2023/04/17 06:24:03;;;;;;;33.10;20.85;;;8.00;60.70;;;;;;7366088;19;20117;-68
2023/04/17 06:26:35;;;;;;;34.65;21.65;;;8.00;60.30;;;;;;7367295;19;20026;-69
2023/04/17 06:29:05;;;;;;;31.63;20.10;;;8.00;60.80;;;;;;7367636;19;20034;-67
2023/04/17 06:31:35;;;;;;;30.40;19.55;;;8.00;60.70;;;;;;7366400;19;20011;-69
2023/04/17 06:34:05;;;;;;;29.98;19.20;;;8.00;60.70;;;;;;7389365;19;20494;-69
2023/04/17 06:36:35;;;;;;;28.38;18.63;;;8.10;60.40;;;;;;7368178;19;20756;-69
2023/04/17 06:39:05;;;;;;;30.50;18.02;;;8.10;60.60;;;;;;7364386;19;20015;-68
2023/04/17 06:41:37;;;;;;;28.98;19.27;;;8.10;60.20;;;;;;7388922;19;20079;-68
2023/04/17 06:44:07;;;;;;;32.13;19.40;;;8.10;60.50;;;;;;7364439;19;20014;-68
2023/04/17 06:46:37;;;;;;;31.00;18.98;;;8.10;60.90;;;;;;7360848;19;20014;-68
2023/04/17 06:49:07;;;;;;;31.67;18.92;;;8.10;60.70;;;;;;7366578;19;20030;-69
2023/04/17 06:51:37;;;;;;;34.03;19.60;;;8.00;59.70;;;;;;7366437;19;20018;-69
2023/04/17 06:54:08;;;;;;;34.70;19.83;;;8.10;60.90;;;;;;7365844;19;20010;-69
2023/04/17 06:56:41;;;;;;;30.13;18.40;;;8.00;59.50;;;;;;7389036;19;20462;-69
2023/04/17 06:59:12;;;;;;;27.15;18.08;;;8.10;60.20;;;;;;7366526;19;20454;-68
2023/04/17 07:01:42;;;;;;;31.10;19.13;;;8.10;60.10;;;;;;7365878;19;20014;-68
2023/04/17 07:04:12;;;;;;;30.27;18.77;;;8.10;60.70;;;;;;7366514;19;20011;-69
2023/04/17 07:06:42;;;;;;;31.92;19.80;;;8.10;60.80;;;;;;7368725;19;20023;-68
2023/04/17 07:09:12;;;;;;;33.03;20.08;;;8.10;61.00;;;;;;7366217;19;20020;-68
2023/04/17 07:11:45;;;;;;;30.10;19.75;;;8.20;61.40;;;;;;7388264;19;20029;-68
2023/04/17 07:14:14;;;;;;;30.70;20.77;;;8.10;61.10;;;;;;7366422;19;20006;-68
2023/04/17 07:16:44;;;;;;;33.08;20.55;;;8.20;61.40;;;;;;7366875;19;20531;-69
2023/04/17 07:19:15;;;;;;;29.42;19.20;;;8.20;61.70;;;;;;7365824;19;20034;-69
2023/04/17 07:21:45;;;;;;;32.20;18.30;;;8.20;61.00;;;;;;7367124;19;20024;-68
2023/04/17 07:24:15;;;;;;;31.45;19.90;;;8.30;61.80;;;;;;7365974;19;20110;-68
2023/04/17 07:26:48;;;;;;;35.05;19.52;;;8.30;61.70;;;;;;7388893;19;20032;-69
2023/04/17 07:29:18;;;;;;;29.35;19.23;;;8.30;61.10;;;;;;7364709;19;20010;-69
2023/04/17 07:31:48;;;;;;;29.58;19.90;;;8.20;61.00;;;;;;7364974;19;20049;-69
2023/04/17 07:34:18;;;;;;;27.75;18.17;;;8.30;61.70;;;;;;7367041;19;20003;-69
2023/04/17 07:36:50;;;;;;;28.88;18.17;;;8.30;61.00;;;;;;7367118;19;20017;-70
2023/04/17 07:39:20;;;;;;;33.70;19.30;;;8.40;60.60;;;;;;7361919;19;20077;-68
2023/04/17 07:41:53;;;;;;;30.92;18.80;;;8.40;60.60;;;;;;7387152;19;20019;-68
2023/04/17 07:44:23;;;;;;;29.55;18.73;;;8.40;59.30;;;;;;7364432;19;20007;-69
2023/04/17 07:46:53;;;;;;;26.92;17.52;;;8.50;59.50;;;;;;7361049;19;20017;-68
2023/04/17 07:49:23;;;;;;;28.63;18.55;;;8.40;59.30;;;;;;7358492;19;20003;-68
2023/04/17 07:51:53;;;;;;;27.42;17.48;;;8.50;59.40;;;;;;7366626;19;20010;-66
2023/04/17 07:54:23;;;;;;;24.55;16.17;;;8.40;57.10;;;;;;7363845;19;20021;-67
2023/04/17 07:57:01;;;;;;;25.08;15.98;;;8.50;57.20;;;;;;7380155;19;20466;-69
2023/04/17 07:59:31;;;;;;;27.38;17.38;;;8.60;57.00;;;;;;7384258;19;20017;-70
2023/04/17 08:02:01;;;;;;;26.20;16.08;;;8.70;57.30;;;;;;7371514;19;20011;-69
2023/04/17 08:04:31;;;;;;;25.48;15.63;;;8.70;56.60;;;;;;7372352;19;20014;-67
2023/04/17 08:07:02;;;;;;;22.05;14.75;;;8.80;56.30;;;;;;7374146;19;20543;-68
2023/04/17 08:09:32;;;;;;;23.98;14.82;;;8.80;55.40;;;;;;7370415;19;20021;-69
2023/04/17 08:12:04;;;;;;;19.52;14.07;;;8.90;54.90;;;;;;7371767;19;20017;-67
2023/04/17 08:14:34;;;;;;;21.25;14.40;;;8.90;52.80;;;;;;7392573;19;20508;-68
2023/04/17 08:17:06;;;;;;;19.10;12.85;;;9.10;52.60;;;;;;7373422;19;20348;-68
2023/04/17 08:19:36;;;;;;;20.05;12.85;;;9.00;49.60;;;;;;7370171;19;20021;-68
2023/04/17 08:22:06;;;;;;;21.08;13.57;;;9.10;49.80;;;;;;7371037;19;20032;-68
2023/04/17 08:24:36;;;;;;;18.92;12.68;;;9.10;49.60;;;;;;7371608;19;20010;-68
2023/04/17 08:27:09;;;;;;;16.23;11.38;;;9.10;47.90;;;;;;7374090;19;20355;-67
2023/04/17 08:29:39;;;;;;;17.80;10.38;;;9.20;46.80;;;;;;7391806;19;20015;-68
2023/04/17 08:32:09;;;;;;;20.73;10.85;;;9.20;45.70;;;;;;7371510;19;20018;-69
2023/04/17 08:34:43;;;;;;;16.58;11.82;;;9.30;45.30;;;;;;7370974;19;20010;-68
2023/04/17 08:37:13;;;;;;;14.63;9.82;;;9.40;44.90;;;;;;7372668;19;20010;-67
2023/04/17 08:39:43;;;;;;;16.13;10.30;;;9.30;43.60;;;;;;7369941;19;20010;-69
2023/04/17 08:42:16;;;;;;;15.23;10.43;;;9.30;43.90;;;;;;7371534;19;20004;-68
2023/04/17 08:44:47;;;;;;;15.02;10.20;;;9.40;41.80;;;;;;7391566;19;20018;-68
2023/04/17 08:47:19;;;;;;;14.85;9.68;;;9.40;42.80;;;;;;7371621;19;20014;-68
2023/04/17 08:49:49;;;;;;;15.23;9.90;;;9.40;42.40;;;;;;7368813;19;20006;-68
2023/04/17 08:52:19;;;;;;;13.50;10.20;;;9.40;42.40;;;;;;7370891;19;20086;-69
2023/04/17 08:54:49;;;;;;;14.73;10.30;;;9.50;41.80;;;;;;7371419;19;20086;-67
2023/04/17 08:57:22;;;;;;;13.60;9.50;;;9.60;42.80;;;;;;7371178;19;20038;-68
2023/04/17 08:59:52;;;;;;;14.52;9.13;;;9.80;42.10;;;;;;7385913;19;20078;-68
2023/04/17 09:02:22;;;;;;;12.13;8.13;;;9.90;39.40;;;;;;7390281;19;20014;-68
2023/04/17 09:04:56;;;;;;;13.98;8.88;;;9.80;35.20;;;;;;7370717;19;20010;-68
2023/04/17 09:07:31;;;;;;;12.38;8.30;;;9.80;34.50;;;;;;7370623;19;20521;-69
2023/04/17 09:10:01;;;;;;;10.18;7.95;;;9.80;33.80;;;;;;7371074;19;20106;-68
2023/04/17 09:12:40;;;;;;;10.80;7.50;;;9.70;33.60;;;;;;7367575;19;20086;-67
2023/04/17 09:15:17;;;;;;;8.98;7.35;;;9.80;33.50;;;;;;7370539;19;20467;-67
2023/04/17 09:17:48;;;;;;;10.85;7.55;;;9.80;33.30;;;;;;7391950;19;20086;-67
2023/04/17 09:20:18;;;;;;;10.43;7.18;;;9.80;33.60;;;;;;7368912;19;20050;-67
2023/04/17 09:22:49;;;;;;;9.85;7.00;;;9.80;30.30;;;;;;7367764;19;20018;-68
2023/04/17 09:25:19;;;;;;;9.57;7.50;;;9.80;30.10;;;;;;7371469;19;20035;-67
2023/04/17 09:27:52;;;;;;;10.35;7.70;;;9.70;31.40;;;;;;7371990;19;20363;-68
2023/04/17 09:30:22;;;;;;;11.05;7.03;;;9.70;33.50;;;;;;7369336;19;20416;-68
2023/04/17 09:33:05;;;;;;;10.13;7.20;;;9.70;33.50;;;;;;7388166;19;20079;-68
2023/04/17 09:35:37;;;;;;;11.55;7.32;;;9.70;31.80;;;;;;7391801;19;20387;-68
2023/04/17 09:38:09;;;;;;;10.40;7.53;;;9.60;31.80;;;;;;7368622;19;20070;-67
2023/04/17 09:40:40;;;;;;;10.85;6.90;;;9.70;32.10;;;;;;7368503;19;20018;-68
2023/04/17 09:43:13;;;;;;;9.82;6.97;;;9.70;29.10;;;;;;7369613;19;20029;-67
2023/04/17 09:45:44;;;;;;;12.65;7.70;;;9.70;28.90;;;;;;7369196;19;20502;-67
2023/04/17 09:48:15;;;;;;;10.85;7.63;;;9.90;29.60;;;;;;7370203;19;20025;-67
2023/04/17 09:50:45;;;;;;;10.85;6.72;;;10.00;28.90;;;;;;7389402;19;20067;-68
2023/04/17 09:53:16;;;;;;;9.60;6.93;;;10.00;25.60;;;;;;7369993;19;20469;-67
2023/04/17 09:55:48;;;;;;;9.57;7.20;;;10.00;23.20;;;;;;7370868;19;20023;-68
2023/04/17 09:58:21;;;;;;;10.93;7.25;;;10.40;27.00;;;;;;7369385;19;20014;-69
2023/04/17 10:00:51;;;;;;;10.88;7.45;;;10.40;23.50;;;;;;7367017;19;20085;-68
2023/04/17 10:03:22;;;;;;;10.60;7.85;;;10.50;22.80;;;;;;7367807;19;20014;-68
2023/04/17 10:05:53;;;;;;;8.27;5.93;;;10.60;22.50;;;;;;7387077;19;20039;-69
2023/04/17 10:08:23;;;;;;;9.57;6.95;;;10.70;20.00;;;;;;7391281;19;20030;-69
2023/04/17 10:10:53;;;;;;;9.52;5.88;;;10.70;22.70;;;;;;7367506;19;20020;-68
2023/04/17 10:13:29;;;;;;;7.25;5.97;;;10.70;18.00;;;;;;7367470;19;20006;-69
2023/04/17 10:15:59;;;;;;;8.73;5.97;;;10.80;17.00;;;;;;7369796;19;20011;-68
2023/04/17 10:18:29;;;;;;;7.80;5.80;;;10.70;17.30;;;;;;7369646;19;20014;-67
2023/04/17 10:21:24;;;;;;;8.13;5.45;;;10.70;16.40;;;;;;7365172;19;20014;-68
2023/04/17 10:23:55;;;;;;;7.85;6.07;;;10.70;14.70;;;;;;7366966;19;20017;-68
2023/04/17 10:26:42;;;;;;;7.07;5.55;;;10.70;15.50;;;;;;7390482;19;20015;-68
2023/04/17 10:29:15;;;;;;;9.77;6.28;;;10.60;15.40;;;;;;7367762;19;20010;-68
2023/04/17 10:32:27;;;;;;;6.57;5.43;;;10.60;17.90;;;;;;7367341;19;20017;-69
2023/04/17 10:34:59;;;;;;;9.60;5.57;;;10.50;17.20;;;;;;7365815;19;20006;-68
2023/04/17 10:38:03;;;;;;;9.43;6.45;;;10.50;16.60;;;;;;7367884;19;20010;-68
2023/04/17 10:40:35;;;;;;;8.07;6.00;;;10.50;18.20;;;;;;7365826;19;20467;-67
2023/04/17 10:43:08;;;;;;;10.88;6.32;;;10.70;20.10;;;;;;7368409;19;20093;-67
2023/04/17 10:46:06;;;;;;;7.85;5.60;;;10.80;16.20;;;;;;7366542;19;20024;-68
2023/04/17 10:48:37;;;;;;;12.35;6.40;;;10.90;17.20;;;;;;7367038;19;20027;-67
2023/04/17 10:51:38;;;;;;;12.73;6.38;;;10.90;15.60;;;;;;7365152;19;20098;-68
2023/04/17 10:54:09;;;;;;;8.70;5.75;;;11.10;14.60;;;;;;7367912;19;20478;-68
2023/04/17 10:56:41;;;;;;;7.10;5.60;;;11.00;11.30;;;;;;7388224;19;20021;-69
2023/04/17 10:59:12;;;;;;;9.73;6.25;;;10.90;12.00;;;;;;7366452;19;20153;-67
2023/04/17 11:01:59;;;;;;;8.80;6.13;;;10.90;13.90;;;;;;7366430;19;20465;-69
2023/04/17 11:04:32;;;;;;;7.57;6.07;;;10.90;14.60;;;;;;7367288;19;20090;-69
2023/04/17 11:07:03;;;;;;;7.60;6.03;;;10.80;15.10;;;;;;7358905;19;20014;-68
2023/04/17 11:09:33;;;;;;;7.57;6.07;;;10.70;16.50;;;;;;7365580;19;20025;-68
2023/04/17 11:12:03;;;;;;;8.10;5.90;;;10.60;15.50;;;;;;7366019;19;20093;-68
2023/04/17 11:14:33;;;;;;;9.02;6.00;;;10.60;15.00;;;;;;7386672;19;20015;-69
2023/04/17 11:17:05;;;;;;;8.93;6.65;;;10.50;17.10;;;;;;7366062;19;20011;-70
2023/04/17 11:19:35;;;;;;;7.88;5.97;;;10.50;23.80;;;;;;7363568;19;20058;-68
2023/04/17 11:22:05;;;;;;;10.13;6.70;;;10.30;25.40;;;;;;7366616;19;20017;-70
2023/04/17 11:24:35;;;;;;;8.38;6.25;;;10.30;27.50;;;;;;7364237;19;20351;-69
2023/04/17 11:27:05;;;;;;;8.80;6.22;;;10.30;27.50;;;;;;7364303;19;20498;-69
2023/04/17 11:29:35;;;;;;;11.15;7.22;;;10.20;26.70;;;;;;7386316;19;20467;-68
2023/04/17 11:32:12;;;;;;;8.77;6.72;;;10.30;29.10;;;;;;7363257;19;20018;-68
2023/04/17 11:34:43;;;;;;;8.20;6.00;;;10.40;29.30;;;;;;7364574;19;20017;-68
2023/04/17 11:37:15;;;;;;;9.55;7.22;;;10.50;27.30;;;;;;7373604;19;20017;-68
2023/04/17 11:39:45;;;;;;;9.10;6.95;;;10.70;26.30;;;;;;7372644;19;20043;-69
2023/04/17 11:42:15;;;;;;;9.00;6.53;;;10.80;27.30;;;;;;7373177;19;20021;-68
2023/04/17 11:44:45;;;;;;;8.45;6.63;;;11.00;26.20;;;;;;7393793;19;20014;-68
2023/04/17 11:47:21;;;;;;;7.30;6.00;;;11.20;24.50;;;;;;7372351;19;20018;-68
2023/04/17 11:49:51;;;;;;;8.07;6.63;;;11.10;19.80;;;;;;7369931;19;20038;-68
2023/04/17 11:52:20;;;;;;;7.97;5.65;;;11.40;22.00;;;;;;7372639;19;20002;-68
2023/04/17 11:54:59;;;;;;;6.20;5.10;;;11.40;19.60;;;;;;7372571;19;20010;-68
2023/04/17 11:57:29;;;;;;;6.65;5.05;;;11.30;9.70;;;;;;7371344;19;20019;-68
2023/04/17 11:59:59;;;;;;;6.55;5.28;;;11.70;8.30;;;;;;7371024;19;20039;-68
2023/04/17 12:02:36;;;;;;;6.57;4.97;;;11.80;5.70;;;;;;7393437;19;20027;-68
2023/04/17 12:05:16;;;;;;;6.72;5.03;;;11.90;3.00;;;;;;7371131;19;20090;-67
2023/04/17 12:07:46;;;;;;;6.20;4.93;;;12.00;3.50;;;;;;7371736;19;20036;-69
2023/04/17 12:10:16;;;;;;;6.32;5.05;;;12.00;1.70;;;;;;7372648;19;20017;-68
2023/04/17 12:12:46;;;;;;;6.85;5.10;;;12.10;3.20;;;;;;7370976;19;20014;-68
2023/04/17 12:15:16;;;;;;;6.63;5.35;;;12.00;1.00;;;;;;7373646;19;20053;-68
2023/04/17 12:17:48;;;;;;;8.00;5.70;;;12.00;1.70;;;;;;7393556;19;20086;-68
2023/04/17 12:20:19;;;;;;;6.32;5.22;;;12.00;3.50;;;;;;7369978;19;20010;-67
2023/04/17 12:22:48;;;;;;;6.63;5.28;;;11.90;1.60;;;;;;7371983;19;20007;-69
2023/04/17 12:25:18;;;;;;;5.72;5.03;;;11.70;1.80;;;;;;7372438;19;20007;-66
2023/04/17 12:27:48;;;;;;;7.32;5.28;;;11.60;1.00;;;;;;7370000;19;20015;-67
2023/04/17 12:30:18;;;;;;;6.90;5.22;;;11.50;1.00;;;;;;7370805;19;20014;-67
2023/04/17 12:32:51;;;;;;;8.95;5.10;;;11.40;1.00;;;;;;7393618;19;20006;-67
2023/04/17 12:35:21;;;;;;;7.50;5.28;;;11.30;1.00;;;;;;7370807;19;20013;-67
2023/04/17 12:37:52;;;;;;;8.20;4.90;;;11.50;1.00;;;;;;7371386;19;20010;-67
2023/04/17 12:40:24;;;;;;;6.53;4.68;;;11.60;1.00;;;;;;7369554;19;20014;-67
2023/04/17 12:42:54;;;;;;;6.30;4.55;;;11.30;1.20;;;;;;7371544;19;20023;-67
2023/04/17 12:45:24;;;;;;;6.63;5.22;;;11.50;1.80;;;;;;7371893;19;20014;-67
2023/04/17 12:47:57;;;;;;;8.05;4.93;;;11.40;1.00;;;;;;7367294;19;20514;-69
2023/04/17 12:50:27;;;;;;;8.00;5.35;;;11.50;1.40;;;;;;7388496;19;20014;-67
2023/04/17 12:52:56;;;;;;;6.40;4.78;;;11.50;1.90;;;;;;7368695;19;20041;-66
2023/04/17 12:55:26;;;;;;;5.80;4.82;;;11.50;2.30;;;;;;7366649;19;20085;-68
2023/04/17 12:57:56;;;;;;;6.15;5.00;;;11.50;1.00;;;;;;7370792;19;20493;-66
2023/04/17 13:00:26;;;;;;;6.00;4.70;;;11.60;1.00;;;;;;7364074;19;20019;-68
2023/04/17 13:02:59;;;;;;;6.10;4.88;;;11.50;1.00;;;;;;7367736;19;20478;-68